Time;durP1;ratioP1;P1;durP2;ratioP2;P2;SDS_P1;SDS_P2;PMS_P1;PMS_P2;Temp;Humidity;BMP_temperature;BMP_pressure;BME280_temperature;BME280_humidity;BME280_pressure;Samples;Min_cycle;Max_cycle;Signal;HPM_P1;HPM_P2
2021/06/26 00:00:07;;;;;;;20.13;14.95;;;;;;;15.76;71.80;99846.78;4974567;28;20049;-72
2021/06/26 00:02:32;;;;;;;16.13;14.40;;;;;;;15.75;71.81;99839.75;4971769;28;20046;-72
2021/06/26 00:04:57;;;;;;;15.43;13.73;;;;;;;15.70;71.86;99840.06;4972301;28;20402;-72
2021/06/26 00:07:23;;;;;;;18.58;11.68;;;;;;;15.68;71.87;99834.84;4972260;28;20101;-73
2021/06/26 00:09:48;;;;;;;18.55;13.10;;;;;;;15.73;71.61;99839.03;4971952;28;20049;-73
2021/06/26 00:12:13;;;;;;;18.25;13.65;;;;;;;15.69;71.78;99838.34;4972835;28;20096;-72
2021/06/26 00:14:39;;;;;;;16.02;13.27;;;;;;;15.63;72.05;99839.63;4955425;28;20031;-72
2021/06/26 00:17:04;;;;;;;28.00;13.80;;;;;;;15.63;71.94;99849.44;4974247;28;20042;-72
2021/06/26 00:19:30;;;;;;;20.67;13.68;;;;;;;15.59;71.87;99840.78;4975220;28;20553;-72
2021/06/26 00:21:55;;;;;;;14.45;12.93;;;;;;;15.57;71.79;99852.50;4980255;28;20089;-73
2021/06/26 00:24:21;;;;;;;19.88;14.23;;;;;;;15.54;72.09;99834.94;4978729;28;20041;-73
2021/06/26 00:26:46;;;;;;;13.60;12.20;;;;;;;15.55;71.92;99843.78;4979576;28;20502;-72
2021/06/26 00:29:12;;;;;;;15.07;13.27;;;;;;;15.48;72.09;99842.50;4980805;28;20039;-73
2021/06/26 00:31:37;;;;;;;20.38;12.57;;;;;;;15.42;72.22;99839.28;4978595;28;20046;-73
2021/06/26 00:34:03;;;;;;;18.08;13.27;;;;;;;15.37;72.21;99837.91;4971701;28;20042;-73
2021/06/26 00:36:28;;;;;;;15.32;11.85;;;;;;;15.36;72.42;99836.22;4970871;28;20133;-73
2021/06/26 00:38:53;;;;;;;20.92;13.73;;;;;;;15.30;72.50;99836.63;4971712;28;20034;-73
2021/06/26 00:41:19;;;;;;;15.80;14.20;;;;;;;15.27;72.81;99839.50;4971306;28;20031;-73
2021/06/26 00:43:44;;;;;;;14.63;11.55;;;;;;;15.26;72.70;99836.00;4954290;28;20035;-71
2021/06/26 00:46:10;;;;;;;16.83;13.57;;;;;;;15.23;72.84;99834.41;4953871;28;20035;-72
2021/06/26 00:48:35;;;;;;;14.98;12.55;;;;;;;15.25;72.63;99829.81;4970397;28;20348;-73
2021/06/26 00:51:00;;;;;;;18.10;13.00;;;;;;;15.27;72.66;99834.19;4971070;28;20542;-71
2021/06/26 00:53:26;;;;;;;15.02;11.75;;;;;;;15.32;72.19;99837.38;4985434;28;20034;-72
2021/06/26 00:55:52;;;;;;;14.88;11.50;;;;;;;15.36;72.39;99834.41;4990306;28;20069;-71
2021/06/26 00:58:24;;;;;;;13.88;11.98;;;;;;;15.40;72.02;99829.72;4990023;28;20117;-73
2021/06/26 01:00:50;;;;;;;16.40;12.45;;;;;;;15.38;71.96;99828.97;4965925;28;20482;-72
2021/06/26 01:03:16;;;;;;;17.73;13.27;;;;;;;15.36;72.18;99829.09;4988645;28;20398;-71
2021/06/26 01:05:42;;;;;;;18.02;13.52;;;;;;;15.35;72.27;99831.84;4989645;28;20037;-72
2021/06/26 01:08:07;;;;;;;17.08;13.25;;;;;;;15.31;72.20;99836.53;4989180;28;20038;-72
2021/06/26 01:10:33;;;;;;;18.63;15.25;;;;;;;15.31;72.58;99830.34;4989401;28;20026;-72
2021/06/26 01:12:58;;;;;;;18.48;15.27;;;;;;;15.27;72.66;99829.72;4989528;28;20046;-72
2021/06/26 01:15:24;;;;;;;16.45;13.52;;;;;;;15.22;72.52;99834.50;4989814;28;20042;-73
2021/06/26 01:17:49;;;;;;;14.98;13.15;;;;;;;15.21;72.76;99832.78;4989194;28;20375;-71
2021/06/26 01:20:18;;;;;;;13.45;11.98;;;;;;;15.21;72.79;99835.44;4972167;28;20578;-73
2021/06/26 01:22:46;;;;;;;21.17;15.57;;;;;;;15.21;73.00;99824.81;4989624;28;20030;-73
2021/06/26 01:25:14;;;;;;;16.17;12.52;;;;;;;15.21;72.55;99823.03;4989395;28;20129;-73
2021/06/26 01:27:41;;;;;;;17.70;12.05;;;;;;;15.24;72.26;99821.97;4989230;28;20121;-73
2021/06/26 01:30:08;;;;;;;17.27;13.95;;;;;;;15.24;72.40;99820.16;4989851;28;20089;-72
2021/06/26 01:32:33;;;;;;;18.33;13.25;;;;;;;15.25;72.32;99821.84;4989162;28;20035;-72
2021/06/26 01:34:58;;;;;;;15.73;13.63;;;;;;;15.28;72.51;99825.25;4989460;28;20105;-73
2021/06/26 01:37:24;;;;;;;18.60;13.48;;;;;;;15.29;72.24;99819.84;4990658;28;20038;-72
2021/06/26 01:39:49;;;;;;;13.95;12.43;;;;;;;15.31;72.13;99817.06;4990341;28;20104;-73
2021/06/26 01:42:15;;;;;;;16.85;14.23;;;;;;;15.31;72.26;99825.91;4990305;28;20057;-72
2021/06/26 01:44:40;;;;;;;17.45;14.35;;;;;;;15.31;72.29;99817.06;4989382;28;20517;-73
2021/06/26 01:47:08;;;;;;;16.42;14.45;;;;;;;15.29;72.38;99814.53;4991073;28;20422;-72
2021/06/26 01:49:35;;;;;;;18.83;12.80;;;;;;;15.31;72.24;99820.59;4992989;28;20034;-73
2021/06/26 01:52:01;;;;;;;16.33;14.13;;;;;;;15.32;72.37;99822.28;4993047;28;20494;-73
2021/06/26 01:54:26;;;;;;;15.07;13.48;;;;;;;15.33;72.29;99821.31;4993062;28;20044;-72
2021/06/26 01:56:51;;;;;;;18.67;15.30;;;;;;;15.32;72.19;99821.44;4992717;28;20033;-72
2021/06/26 01:59:17;;;;;;;15.23;11.95;;;;;;;15.29;72.62;99819.00;4992904;28;20046;-73
2021/06/26 02:01:42;;;;;;;20.20;14.30;;;;;;;15.22;72.61;99822.06;4993252;28;20486;-72
2021/06/26 02:04:08;;;;;;;15.45;13.07;;;;;;;15.22;73.05;99818.56;4993770;28;20033;-73
2021/06/26 02:06:34;;;;;;;19.80;15.45;;;;;;;15.16;72.99;99816.31;4989998;28;20038;-74
2021/06/26 02:08:59;;;;;;;19.15;14.68;;;;;;;15.14;73.28;99811.13;4993269;28;20050;-74
2021/06/26 02:11:24;;;;;;;17.88;13.10;;;;;;;15.10;73.28;99811.44;4993004;28;20080;-75
2021/06/26 02:13:50;;;;;;;17.58;14.73;;;;;;;15.05;73.62;99811.75;4992953;28;20034;-75
2021/06/26 02:16:15;;;;;;;15.23;12.98;;;;;;;15.00;73.69;99809.38;4993044;28;20034;-74
2021/06/26 02:18:40;;;;;;;19.33;15.50;;;;;;;14.98;73.84;99807.78;4975514;28;20120;-73
2021/06/26 02:21:06;;;;;;;17.30;15.27;;;;;;;14.95;73.71;99810.66;4993593;28;20038;-73
2021/06/26 02:23:33;;;;;;;17.52;14.07;;;;;;;14.93;73.97;99804.59;4993091;28;20513;-74
2021/06/26 02:25:58;;;;;;;17.50;13.70;;;;;;;14.90;73.87;99808.31;4992760;28;20479;-74
2021/06/26 02:28:23;;;;;;;21.17;13.50;;;;;;;14.89;74.20;99803.97;4975092;28;20146;-73
2021/06/26 02:30:49;;;;;;;19.27;13.15;;;;;;;14.84;74.25;99806.06;4993025;28;20122;-74
2021/06/26 02:33:14;;;;;;;19.60;15.48;;;;;;;14.83;74.30;99801.69;4975117;28;20394;-73
2021/06/26 02:35:39;;;;;;;20.75;15.48;;;;;;;14.82;74.10;99802.66;4992546;28;20077;-74
2021/06/26 02:38:05;;;;;;;19.60;15.77;;;;;;;14.80;74.46;99804.56;4992744;28;20026;-74
2021/06/26 02:40:31;;;;;;;20.52;14.68;;;;;;;14.79;73.88;99806.38;4992240;28;20030;-74
2021/06/26 02:42:57;;;;;;;15.18;13.02;;;;;;;14.84;74.24;99810.50;4992541;28;20074;-74
2021/06/26 02:45:23;;;;;;;21.80;17.73;;;;;;;14.78;74.10;99802.00;4975215;28;20038;-73
2021/06/26 02:47:48;;;;;;;23.88;14.68;;;;;;;14.76;74.09;99806.56;4992184;28;20034;-73
2021/06/26 02:50:14;;;;;;;20.65;14.93;;;;;;;14.78;74.26;99801.16;4992560;28;20478;-73
2021/06/26 02:52:39;;;;;;;19.17;14.20;;;;;;;14.77;74.19;99805.63;4992481;28;20037;-74
2021/06/26 02:55:05;;;;;;;19.42;15.18;;;;;;;14.75;74.21;99799.56;4975343;28;20038;-73
2021/06/26 02:57:31;;;;;;;18.27;14.40;;;;;;;14.75;73.98;99796.06;4991869;28;20208;-71
2021/06/26 02:59:56;;;;;;;18.70;15.82;;;;;;;14.73;74.27;99796.16;4973770;28;20113;-72
2021/06/26 03:02:22;;;;;;;18.88;15.07;;;;;;;14.69;74.10;99804.41;4992604;28;20117;-71
2021/06/26 03:04:48;;;;;;;21.33;14.63;;;;;;;14.70;74.14;99814.94;4992651;28;20058;-71
2021/06/26 03:07:13;;;;;;;19.17;13.85;;;;;;;14.72;74.17;99809.53;4992613;28;20062;-72
2021/06/26 03:09:38;;;;;;;18.30;15.38;;;;;;;14.74;74.26;99816.44;4993009;28;20033;-72
2021/06/26 03:12:05;;;;;;;15.77;14.07;;;;;;;14.73;74.02;99814.72;4992892;28;20042;-71
2021/06/26 03:14:31;;;;;;;17.45;15.57;;;;;;;14.69;74.21;99821.19;4993169;28;20030;-71
2021/06/26 03:16:56;;;;;;;18.23;14.68;;;;;;;14.71;73.98;99815.78;4987790;28;20046;-72
2021/06/26 03:19:22;;;;;;;16.10;12.93;;;;;;;14.67;74.07;99820.47;4972571;28;20059;-72
2021/06/26 03:21:47;;;;;;;14.75;13.20;;;;;;;14.66;74.20;99821.38;4955155;28;20081;-72
2021/06/26 03:24:12;;;;;;;18.50;16.40;;;;;;;14.62;74.20;99825.22;4972602;28;20027;-73
2021/06/26 03:26:38;;;;;;;15.45;13.32;;;;;;;14.59;74.35;99820.97;4972550;28;20115;-73
2021/06/26 03:29:04;;;;;;;17.88;12.60;;;;;;;14.65;74.25;99824.16;4972456;28;20045;-72
2021/06/26 03:31:30;;;;;;;15.00;13.05;;;;;;;14.65;73.93;99825.00;4962794;28;20043;-72
2021/06/26 03:33:56;;;;;;;17.48;14.40;;;;;;;14.63;74.16;99818.94;4972564;28;20427;-71
2021/06/26 03:36:22;;;;;;;22.58;16.98;;;;;;;14.56;74.54;99823.78;4985196;28;20043;-73
2021/06/26 03:38:47;;;;;;;20.88;15.55;;;;;;;14.52;74.67;99824.06;4997420;28;20090;-72
2021/06/26 03:41:13;;;;;;;18.33;16.27;;;;;;;14.48;74.74;99819.91;4984950;28;20033;-71
2021/06/26 03:43:38;;;;;;;20.77;16.15;;;;;;;14.44;74.97;99818.41;5011529;28;20030;-73
2021/06/26 03:46:04;;;;;;;19.65;15.82;;;;;;;14.42;75.10;99815.84;5010652;28;20033;-73
2021/06/26 03:48:30;;;;;;;17.85;14.98;;;;;;;14.37;74.99;99818.81;4992760;28;20049;-73
2021/06/26 03:50:58;;;;;;;17.92;14.73;;;;;;;14.35;75.00;99826.03;5011430;28;20033;-73
2021/06/26 03:53:24;;;;;;;16.52;14.00;;;;;;;14.38;75.23;99819.66;5012234;28;20111;-72
2021/06/26 03:55:52;;;;;;;16.73;13.57;;;;;;;14.37;75.00;99818.81;5012574;28;20481;-71
2021/06/26 03:58:20;;;;;;;19.33;16.38;;;;;;;14.36;75.01;99817.09;4977329;28;20054;-72
2021/06/26 04:00:45;;;;;;;18.15;13.52;;;;;;;14.39;75.44;99824.84;5011104;28;20034;-72
2021/06/26 04:03:11;;;;;;;15.95;13.95;;;;;;;14.41;75.14;99819.47;5006695;28;20094;-74
2021/06/26 04:05:36;;;;;;;18.98;15.65;;;;;;;14.39;75.51;99827.50;4956341;28;20035;-74
2021/06/26 04:08:01;;;;;;;17.58;14.68;;;;;;;14.38;75.47;99822.31;4971254;28;20031;-73
2021/06/26 04:10:27;;;;;;;20.30;16.80;;;;;;;14.36;75.16;99822.41;4971243;28;20062;-73
2021/06/26 04:12:52;;;;;;;20.02;15.93;;;;;;;14.33;75.12;99825.25;4970967;28;20487;-73
2021/06/26 04:15:18;;;;;;;21.40;15.70;;;;;;;14.31;75.30;99819.19;4972094;28;20129;-73
2021/06/26 04:17:43;;;;;;;23.98;19.55;;;;;;;14.28;75.49;99822.06;4971422;28;20513;-72
2021/06/26 04:20:09;;;;;;;19.95;15.57;;;;;;;14.24;75.81;99823.19;4972340;28;20506;-73
2021/06/26 04:22:35;;;;;;;17.02;14.98;;;;;;;14.26;75.75;99825.75;4971928;28;20085;-72
2021/06/26 04:25:00;;;;;;;21.88;18.15;;;;;;;14.25;75.79;99824.91;4971413;28;20050;-73
2021/06/26 04:27:25;;;;;;;17.20;15.00;;;;;;;14.25;75.54;99824.03;4970474;28;20495;-72
2021/06/26 04:29:51;;;;;;;18.30;14.55;;;;;;;14.27;75.64;99822.13;4970973;28;20507;-73
2021/06/26 04:32:16;;;;;;;17.65;13.95;;;;;;;14.29;75.99;99829.03;4971371;28;20089;-73
2021/06/26 04:34:41;;;;;;;25.95;17.38;;;;;;;14.30;75.30;99828.13;4953890;28;20035;-73
2021/06/26 04:37:07;;;;;;;23.33;17.98;;;;;;;14.30;75.16;99836.06;4971392;28;20041;-72
2021/06/26 04:39:33;;;;;;;24.48;19.88;;;;;;;14.34;75.55;99840.22;4953641;28;20122;-72
2021/06/26 04:41:58;;;;;;;26.08;20.10;;;;;;;14.38;75.16;99840.88;4971385;28;20097;-73
2021/06/26 04:44:23;;;;;;;24.40;18.20;;;;;;;14.39;75.49;99840.75;4970868;28;20511;-73
2021/06/26 04:46:49;;;;;;;21.88;18.08;;;;;;;14.41;75.35;99832.72;4970424;28;20473;-73
2021/06/26 04:49:14;;;;;;;20.20;16.63;;;;;;;14.43;75.85;99828.16;4970537;28;20050;-73
2021/06/26 04:51:41;;;;;;;20.05;14.80;;;;;;;14.52;75.23;99826.72;4971037;28;20129;-72
2021/06/26 04:54:06;;;;;;;19.23;16.75;;;;;;;14.63;74.85;99840.16;4971309;28;20110;-72
2021/06/26 04:56:31;;;;;;;18.73;15.00;;;;;;;14.74;75.06;99831.50;4970312;28;20047;-73
2021/06/26 04:58:57;;;;;;;16.75;13.98;;;;;;;14.88;74.47;99828.78;4970082;28;20094;-74
2021/06/26 05:01:22;;;;;;;14.10;12.25;;;;;;;15.04;73.98;99833.94;4970661;28;20035;-74
2021/06/26 05:03:47;;;;;;;16.90;13.55;;;;;;;15.20;73.07;99829.28;4970200;28;20038;-72
2021/06/26 05:06:13;;;;;;;18.63;15.77;;;;;;;15.37;71.95;99830.78;4970516;28;20581;-72
2021/06/26 05:08:38;;;;;;;20.10;14.50;;;;;;;15.56;71.25;99830.38;4970064;28;20045;-72
2021/06/26 05:11:04;;;;;;;19.10;15.65;;;;;;;15.79;70.20;99836.78;4970631;28;20039;-71
2021/06/26 05:13:30;;;;;;;18.63;15.55;;;;;;;16.05;69.41;99834.94;4970173;28;20089;-73
2021/06/26 05:15:56;;;;;;;20.55;14.50;;;;;;;16.33;68.87;99842.75;4953462;28;20026;-73
2021/06/26 05:18:21;;;;;;;16.23;14.52;;;;;;;16.55;68.27;99836.72;4970446;28;20085;-73
2021/06/26 05:20:46;;;;;;;15.48;13.55;;;;;;;16.75;67.46;99830.78;4970207;28;20062;-72
2021/06/26 05:23:13;;;;;;;17.85;15.07;;;;;;;16.94;66.91;99833.78;4957992;28;20061;-74
2021/06/26 05:25:39;;;;;;;18.50;14.70;;;;;;;17.10;66.07;99838.81;4989068;28;20042;-73
2021/06/26 05:28:04;;;;;;;25.05;14.60;;;;;;;17.28;65.44;99839.25;4989081;28;20038;-74
2021/06/26 05:30:30;;;;;;;16.35;13.70;;;;;;;17.51;65.06;99836.63;4989211;28;20570;-74
2021/06/26 05:32:55;;;;;;;15.80;14.10;;;;;;;17.73;64.31;99839.31;4989785;28;20454;-74
2021/06/26 05:35:20;;;;;;;20.63;14.85;;;;;;;17.96;63.42;99839.34;4989577;28;20040;-72
2021/06/26 05:37:46;;;;;;;17.50;13.05;;;;;;;18.02;63.05;99844.22;4988900;28;20414;-73
2021/06/26 05:40:12;;;;;;;15.25;12.85;;;;;;;18.07;63.30;99835.84;4989555;28;20038;-72
2021/06/26 05:42:37;;;;;;;17.23;12.18;;;;;;;18.42;62.47;99838.34;4989976;28;20056;-73
2021/06/26 05:45:04;;;;;;;22.52;17.02;;;;;;;18.84;60.58;99841.16;4989589;28;20548;-74
2021/06/26 05:47:30;;;;;;;24.35;14.98;;;;;;;18.86;60.64;99837.41;4989485;28;20416;-71
2021/06/26 05:49:55;;;;;;;22.13;15.35;;;;;;;18.87;61.19;99836.41;4989335;28;20121;-72
2021/06/26 05:52:20;;;;;;;22.65;14.70;;;;;;;19.23;59.84;99837.00;4989559;28;20065;-73
2021/06/26 05:54:46;;;;;;;19.23;14.52;;;;;;;19.58;58.13;99837.63;4989550;28;20506;-74
2021/06/26 05:57:11;;;;;;;21.20;15.57;;;;;;;20.05;57.50;99838.88;4988895;28;20129;-74
2021/06/26 05:59:37;;;;;;;17.50;12.73;;;;;;;20.46;57.36;99849.59;4990090;28;20066;-71
2021/06/26 06:02:02;;;;;;;21.75;15.35;;;;;;;20.85;55.14;99852.34;4989626;28;20057;-72
2021/06/26 06:04:28;;;;;;;20.20;15.80;;;;;;;21.13;54.42;99837.25;4972067;28;20061;-73
2021/06/26 06:06:53;;;;;;;22.70;16.40;;;;;;;21.19;53.78;99844.72;4988971;28;20041;-73
2021/06/26 06:09:19;;;;;;;20.73;16.02;;;;;;;21.27;53.68;99839.50;4989671;28;20049;-74
2021/06/26 06:11:44;;;;;;;18.75;15.07;;;;;;;21.38;53.04;99830.44;4988462;28;20093;-72
2021/06/26 06:14:10;;;;;;;21.58;14.38;;;;;;;21.29;53.45;99831.28;4986334;28;20049;-73
2021/06/26 06:16:37;;;;;;;17.67;15.75;;;;;;;21.43;52.87;99830.88;4989330;28;20033;-74
2021/06/26 06:19:02;;;;;;;17.95;14.57;;;;;;;21.57;52.51;99837.66;4989701;28;20141;-72
2021/06/26 06:21:27;;;;;;;20.02;16.42;;;;;;;21.62;51.77;99838.91;4989464;28;20435;-72
2021/06/26 06:23:53;;;;;;;23.20;16.60;;;;;;;21.87;51.51;99833.88;4989549;28;20630;-73
2021/06/26 06:26:18;;;;;;;19.13;14.15;;;;;;;21.90;51.79;99832.72;4988831;28;20049;-73
2021/06/26 06:28:43;;;;;;;23.08;18.00;;;;;;;21.95;50.88;99825.91;4989063;28;20069;-72
2021/06/26 06:31:09;;;;;;;18.63;14.55;;;;;;;21.97;51.18;99823.94;4989834;28;20126;-73
2021/06/26 06:33:34;;;;;;;16.38;14.32;;;;;;;21.94;51.28;99824.25;4990353;28;20109;-73
2021/06/26 06:36:03;;;;;;;16.02;12.98;;;;;;;21.87;50.16;99826.66;4992802;28;20062;-75
2021/06/26 06:38:28;;;;;;;15.50;12.52;;;;;;;21.94;50.30;99826.94;4975317;28;20410;-73
2021/06/26 06:40:54;;;;;;;13.07;11.20;;;;;;;22.11;49.17;99827.16;4992635;28;20058;-71
2021/06/26 06:43:19;;;;;;;16.65;12.85;;;;;;;22.31;48.81;99828.75;4992185;28;20041;-71
2021/06/26 06:45:44;;;;;;;13.90;11.05;;;;;;;22.39;48.68;99830.69;4992300;28;20042;-72
2021/06/26 06:48:10;;;;;;;14.35;9.85;;;;;;;22.50;47.94;99825.97;4992585;28;20072;-74
2021/06/26 06:50:35;;;;;;;16.05;11.32;;;;;;;22.64;47.73;99829.97;4974825;28;20114;-74
2021/06/26 06:53:02;;;;;;;15.57;10.35;;;;;;;22.86;46.93;99833.19;4992788;28;20038;-73
2021/06/26 06:55:28;;;;;;;13.57;9.88;;;;;;;22.91;45.85;99831.75;4975432;28;20034;-72
2021/06/26 06:57:53;;;;;;;12.05;9.32;;;;;;;23.02;46.48;99822.63;4992572;28;20033;-73
2021/06/26 07:00:19;;;;;;;10.68;9.23;;;;;;;23.06;45.88;99828.53;4992615;28;20121;-74
2021/06/26 07:02:44;;;;;;;13.63;8.23;;;;;;;23.01;44.82;99820.09;4992411;28;20038;-73
2021/06/26 07:05:10;;;;;;;11.18;8.98;;;;;;;22.98;45.18;99823.09;4976532;28;20027;-73
2021/06/26 07:07:35;;;;;;;9.00;7.93;;;;;;;23.02;45.65;99828.00;4991786;28;20190;-72
2021/06/26 07:10:02;;;;;;;11.77;8.07;;;;;;;22.98;44.22;99829.31;4992406;28;20088;-71
2021/06/26 07:12:28;;;;;;;8.18;7.38;;;;;;;22.85;44.03;99826.13;4974585;28;20037;-73
2021/06/26 07:14:53;;;;;;;8.10;6.50;;;;;;;23.04;43.11;99819.78;4991878;28;20030;-73
2021/06/26 07:17:19;;;;;;;9.73;6.97;;;;;;;23.22;42.29;99831.38;4991991;28;20044;-74
2021/06/26 07:19:44;;;;;;;10.15;6.50;;;;;;;23.20;42.56;99827.13;4992488;28;20038;-73
2021/06/26 07:22:09;;;;;;;10.65;7.43;;;;;;;23.30;42.43;99825.19;4992851;28;20038;-74
2021/06/26 07:24:35;;;;;;;7.93;6.57;;;;;;;23.28;41.70;99830.75;4992523;28;20034;-73
2021/06/26 07:27:00;;;;;;;9.82;6.82;;;;;;;23.34;41.46;99830.13;4992243;28;21679;-75
2021/06/26 07:29:26;;;;;;;7.88;5.80;;;;;;;23.59;40.97;99822.22;4963971;28;20038;-74
2021/06/26 07:31:51;;;;;;;8.75;6.60;;;;;;;24.09;40.49;99826.03;4984372;28;20500;-76
2021/06/26 07:34:17;;;;;;;9.75;6.70;;;;;;;24.31;39.98;99816.53;4990217;28;20041;-75
2021/06/26 07:36:42;;;;;;;7.88;6.60;;;;;;;24.50;39.39;99818.97;4991367;28;20031;-74
2021/06/26 07:39:07;;;;;;;7.43;5.60;;;;;;;25.02;38.32;99820.56;4985407;28;20034;-74
2021/06/26 07:41:33;;;;;;;13.63;6.85;;;;;;;25.55;37.30;99818.34;4992159;28;20105;-73
2021/06/26 07:43:58;;;;;;;9.55;6.55;;;;;;;26.12;36.47;99812.84;4992418;28;20587;-73
2021/06/26 07:46:26;;;;;;;8.55;6.03;;;;;;;26.54;34.17;99817.03;4988437;28;20413;-73
2021/06/26 07:48:51;;;;;;;9.20;6.38;;;;;;;26.80;34.20;99821.25;4992690;28;20057;-73
2021/06/26 07:51:17;;;;;;;10.43;6.70;;;;;;;26.72;33.47;99814.03;4991976;28;20490;-74
2021/06/26 07:53:42;;;;;;;8.48;5.43;;;;;;;26.80;33.98;99815.84;4991673;28;20031;-73
2021/06/26 07:56:08;;;;;;;8.63;6.05;;;;;;;26.91;33.22;99813.56;4991728;28;20042;-73
2021/06/26 07:58:33;;;;;;;10.35;5.32;;;;;;;27.03;33.43;99810.44;4991338;28;20615;-75
2021/06/26 08:00:58;;;;;;;7.68;5.68;;;;;;;27.13;33.27;99808.34;4991119;28;20053;-75
2021/06/26 08:03:25;;;;;;;9.20;6.03;;;;;;;26.93;32.72;99814.22;4991397;28;20061;-73
2021/06/26 08:05:51;;;;;;;6.30;5.22;;;;;;;26.70;33.03;99811.50;4991202;28;20674;-73
2021/06/26 08:08:17;;;;;;;8.15;4.80;;;;;;;26.57;33.59;99807.72;4990607;28;20068;-73
2021/06/26 08:10:43;;;;;;;8.52;6.22;;;;;;;26.21;34.20;99816.31;4990606;28;20034;-73
2021/06/26 08:13:10;;;;;;;16.58;12.32;;;;;;;26.05;34.37;99815.38;4991325;28;20041;-73
2021/06/26 08:15:36;;;;;;;7.47;6.05;;;;;;;25.65;34.75;99813.63;4983997;28;20046;-73
2021/06/26 08:18:06;;;;;;;8.13;5.47;;;;;;;25.90;34.95;99812.56;4985915;28;20136;-73
2021/06/26 08:20:32;;;;;;;8.32;6.63;;;;;;;26.19;34.47;99816.53;4963187;28;20042;-75
2021/06/26 08:22:58;;;;;;;7.35;6.45;;;;;;;26.20;33.71;99807.38;4979139;28;20490;-73
2021/06/26 08:25:24;;;;;;;6.47;5.85;;;;;;;26.05;34.14;99806.44;4981843;28;20398;-76
2021/06/26 08:27:50;;;;;;;7.72;6.35;;;;;;;25.77;34.24;99803.28;4979269;28;20043;-74
2021/06/26 08:30:16;;;;;;;6.78;5.25;;;;;;;25.60;34.55;99808.75;4962803;28;20058;-74
2021/06/26 08:32:43;;;;;;;6.70;4.53;;;;;;;25.34;35.63;99808.94;4981208;28;20756;-74
2021/06/26 08:35:08;;;;;;;6.32;5.43;;;;;;;25.22;36.12;99810.31;4981222;28;20039;-74
2021/06/26 08:37:34;;;;;;;6.72;5.25;;;;;;;25.27;38.36;99814.16;4976918;28;20085;-49
2021/06/26 08:40:00;;;;;;;11.48;5.07;;;;;;;25.46;35.71;99814.84;4976342;28;20154;-50
2021/06/26 08:42:25;;;;;;;6.80;6.10;;;;;;;25.23;35.69;99807.44;4979427;28;20065;-47
2021/06/26 08:44:57;;;;;;;5.85;4.78;;;;;;;25.19;36.11;99813.34;4978522;28;20117;-48
2021/06/26 08:47:23;;;;;;;6.75;5.15;;;;;;;25.15;36.80;99818.19;4969489;28;20089;-51
2021/06/26 08:49:48;;;;;;;6.80;5.00;;;;;;;25.49;36.45;99809.09;4970366;28;20046;-49
2021/06/26 08:52:14;;;;;;;8.95;5.60;;;;;;;25.64;35.80;99803.81;4970688;28;20149;-50
2021/06/26 08:54:39;;;;;;;9.10;6.82;;;;;;;25.69;35.43;99805.00;4971062;28;20037;-49
2021/06/26 08:57:04;;;;;;;6.18;5.13;;;;;;;25.34;35.99;99808.94;4970099;28;20027;-49
2021/06/26 08:59:30;;;;;;;6.97;5.55;;;;;;;25.31;36.89;99808.47;4971025;28;20058;-52
2021/06/26 09:01:55;;;;;;;8.18;6.15;;;;;;;25.28;36.08;99810.47;4970494;28;20066;-45
2021/06/26 09:04:21;;;;;;;6.88;5.80;;;;;;;25.60;35.81;99799.81;4983740;28;20034;-45
2021/06/26 09:06:49;;;;;;;11.45;6.00;;;;;;;25.69;36.46;99796.06;4978146;28;20034;-55
2021/06/26 09:09:15;;;;;;;7.10;6.00;;;;;;;25.55;36.10;99811.13;4987558;28;20040;-52
2021/06/26 09:11:41;;;;;;;8.50;5.13;;;;;;;25.60;35.70;99805.22;5004582;28;20497;-55
2021/06/26 09:14:20;;;;;;;6.03;4.93;;;;;;;26.36;34.49;99801.06;5004489;28;20034;-49
2021/06/26 09:16:52;;;;;;;11.15;5.85;;;;;;;26.68;33.55;99801.88;4965639;28;20053;-64
2021/06/26 09:19:18;;;;;;;10.00;4.55;;;;;;;26.27;34.27;99802.94;4966904;28;20510;-73
2021/06/26 09:21:55;;;;;;;6.57;5.28;;;;;;;25.85;35.16;99801.44;4954015;28;20492;-75
2021/06/26 09:24:20;;;;;;;7.20;5.13;;;;;;;25.51;35.51;99809.78;4962288;28;20035;-73
2021/06/26 09:26:59;;;;;;;6.57;4.75;;;;;;;25.17;36.50;99807.28;4970888;28;20182;-73
2021/06/26 09:29:26;;;;;;;8.82;5.28;;;;;;;25.08;36.99;99809.13;4981927;28;20165;-75
2021/06/26 09:31:56;;;;;;;7.43;4.93;;;;;;;25.03;36.90;99811.44;4982500;28;20826;-72
2021/06/26 09:34:23;;;;;;;10.13;6.15;;;;;;;25.05;36.62;99812.97;4966672;28;20034;-73
2021/06/26 09:37:00;;;;;;;6.32;5.72;;;;;;;26.26;34.88;99813.94;4966090;28;20057;-72
2021/06/26 09:39:35;;;;;;;6.30;5.75;;;;;;;27.11;33.29;99807.66;4982089;28;20069;-70
2021/06/26 09:42:00;;;;;;;10.20;5.10;;;;;;;27.65;32.44;99809.38;4972153;28;20039;-69
2021/06/26 09:44:26;;;;;;;6.95;5.65;;;;;;;28.40;31.82;99801.03;4970680;28;20107;-75
2021/06/26 09:46:51;;;;;;;6.72;6.07;;;;;;;28.88;30.73;99814.09;4963163;28;20060;-74
2021/06/26 09:49:28;;;;;;;6.53;5.82;;;;;;;29.84;29.27;99808.22;4981289;28;20046;-74
2021/06/26 09:52:02;;;;;;;6.13;4.53;;;;;;;30.36;27.75;99807.63;4983709;28;20510;-74
2021/06/26 09:54:28;;;;;;;8.40;5.13;;;;;;;30.74;27.32;99804.41;4983996;28;20077;-74
2021/06/26 09:56:54;;;;;;;6.43;5.82;;;;;;;30.95;26.27;99808.00;4983185;28;20517;-74
2021/06/26 09:59:29;;;;;;;5.65;5.13;;;;;;;31.21;26.53;99799.03;4967394;28;20699;-73
2021/06/26 10:01:57;;;;;;;6.18;5.57;;;;;;;31.55;26.00;99799.84;4981450;28;20563;-72
2021/06/26 10:04:23;;;;;;;7.50;4.55;;;;;;;32.06;25.00;99799.94;4981849;28;20130;-73
2021/06/26 10:06:52;;;;;;;5.95;4.93;;;;;;;32.29;24.57;99798.59;4967335;28;20042;-71
2021/06/26 10:09:18;;;;;;;8.25;5.25;;;;;;;31.91;24.63;99793.06;4983081;28;20030;-75
2021/06/26 10:11:44;;;;;;;10.18;6.78;;;;;;;31.72;25.04;99795.63;4980594;28;20125;-74
2021/06/26 10:14:11;;;;;;;5.30;4.80;;;;;;;31.90;24.83;99794.97;4983518;28;20042;-75
2021/06/26 10:16:39;;;;;;;5.50;4.72;;;;;;;32.00;24.55;99787.19;4984361;28;20638;-73
2021/06/26 10:19:10;;;;;;;5.50;5.00;;;;;;;31.37;25.23;99798.56;4987249;28;20038;-75
2021/06/26 10:21:36;;;;;;;6.63;5.10;;;;;;;30.87;25.71;99792.72;4987224;28;20551;-75
2021/06/26 10:24:04;;;;;;;5.47;4.97;;;;;;;31.04;25.44;99793.16;4987630;28;20089;-72
2021/06/26 10:26:36;;;;;;;6.07;4.63;;;;;;;31.30;24.66;99781.41;4987433;28;20484;-70
2021/06/26 10:29:02;;;;;;;8.05;5.20;;;;;;;31.67;24.16;99785.34;4987394;28;20046;-71
2021/06/26 10:31:37;;;;;;;5.43;4.50;;;;;;;32.42;23.63;99784.91;4987426;28;20049;-75
2021/06/26 10:34:19;;;;;;;4.97;3.60;;;;;;;32.32;22.77;99776.34;4988725;28;20038;-72
2021/06/26 10:36:56;;;;;;;5.03;4.03;;;;;;;32.67;22.10;99782.25;4990043;28;20092;-74
2021/06/26 10:39:27;;;;;;;7.57;3.50;;;;;;;32.55;21.75;99781.28;4990870;28;20422;-75
2021/06/26 10:42:06;;;;;;;4.40;4.00;;;;;;;32.23;22.40;99781.19;4970370;28;20494;-72
2021/06/26 10:44:41;;;;;;;5.30;4.10;;;;;;;32.48;22.53;99778.53;4988858;28;20084;-73
2021/06/26 10:47:07;;;;;;;4.32;3.70;;;;;;;32.84;22.24;99779.00;4986560;28;20517;-70
2021/06/26 10:49:33;;;;;;;4.28;3.88;;;;;;;32.90;22.54;99783.56;4987526;28;20050;-74
2021/06/26 10:52:07;;;;;;;4.55;3.92;;;;;;;32.93;22.15;99780.38;4988972;28;20042;-72
2021/06/26 10:54:33;;;;;;;6.07;4.00;;;;;;;31.77;23.73;99778.63;4988534;28;20045;-72
2021/06/26 10:57:04;;;;;;;5.57;3.92;;;;;;;30.28;25.63;99777.06;4988609;28;20042;-71
2021/06/26 10:59:29;;;;;;;6.13;4.05;;;;;;;29.46;27.06;99782.25;4987963;28;20036;-73
2021/06/26 11:02:04;;;;;;;4.32;3.65;;;;;;;29.15;27.78;99779.06;4990930;28;20034;-71
2021/06/26 11:04:30;;;;;;;;;;;;;;;29.68;26.87;99774.88;4979749;28;20105;-73
2021/06/26 11:07:10;;;;;;;5.50;4.00;;;;;;;29.78;25.79;99770.94;4986854;28;19913;-71
2021/06/26 11:09:48;;;;;;;6.05;4.18;;;;;;;29.20;26.86;99772.00;4985044;28;20106;-74
2021/06/26 11:12:18;;;;;;;6.93;4.90;;;;;;;28.53;28.64;99765.13;4990143;28;20118;-76
2021/06/26 11:14:54;;;;;;;6.15;4.85;;;;;;;28.01;30.56;99768.88;4980931;28;20259;-72
2021/06/26 11:17:23;;;;;;;5.20;4.40;;;;;;;27.70;31.73;99775.28;4991483;28;20042;-74
2021/06/26 11:19:49;;;;;;;8.80;5.50;;;;;;;27.45;31.95;99776.59;5008318;28;20123;-75